Pagina principale
METAR-TAF:

METAR-TAF

Aeroporti :

Wallis, Francia

latitudine: 13-14S, longitudine: 176-10W, altezza: 23 m

METAR: mancante

Ora: 05:32 (17:32 UTC)

Previsione

Il bollettino è stato emesso 6 ore e 32 minuti fa, alle 11:00 UTC
Previsione valida dal 19 alle 12 UTC al 20 alle 12 UTC
Vento 5 kt da nord-est
Visibilità 10 km o più
Nuvoloso ad un'altezza di 2000 ft
Nuvoloso ad un'altezza di 3000 ft
Temporaneamente
dal 19 alle 14 UTC al 19 alle 24 UTC
Visibilità: 4000 m
Poco nuvoloso ad un'altezza di 2000 ft, Cumulonembo.
rovesci di pioggia

TAF: NLWW 191100Z 1912/2012 05005KT 9999 BKN020 BKN030 TEMPO 1914/1924 4000 SHRA FEW020CB

Osservazioni e previsioni meteorologiche di più di 4000 aeroporti (messaggi METAR e TAF).

Le stazioni disponibili sono rappresentate dai dischi gialli e rossi sulla carta.

Puntare il mouse per vedere il nome della stazione.

Clicca sopra per visualizzare le osservazioni e previsioni meteorologiche.

Per cambiare la mappa : fare clic sui pulsanti verdi con una croce nera per ingrandire, il pulsante verde con un trattino per diminuire, o sulla freccia verde per le mappe adiacenti.


METAR-TAF: